createdAt,value
2022-10-03T00:03:50.963Z,101913.75
2022-10-03T00:09:01.804Z,101920.81
2022-10-03T00:14:29.666Z,101930.38
2022-10-03T00:19:54.329Z,101921.66
2022-10-03T00:25:14.250Z,101926.13
2022-10-03T00:30:24.864Z,101926.13
2022-10-03T00:36:11.923Z,101934.88
2022-10-03T00:41:13.512Z,101936.63
2022-10-03T00:47:03.408Z,101943.53
2022-10-03T00:52:04.835Z,101940.16
2022-10-03T00:57:10.086Z,101952.44
2022-10-03T01:02:39.378Z,101952.44
2022-10-03T01:07:53.087Z,101954.94
2022-10-03T01:13:04.540Z,101957.59
2022-10-03T01:18:29.001Z,101963.72
2022-10-03T01:23:51.965Z,101962.00
2022-10-03T01:29:28.470Z,101968.16
2022-10-03T01:35:14.621Z,101973.41
2022-10-03T01:40:43.092Z,101981.25
2022-10-03T01:46:09.079Z,101985.66
2022-10-03T01:51:21.628Z,101989.16
2022-10-03T01:56:35.116Z,101994.41
2022-10-03T02:01:48.053Z,101985.69
2022-10-03T02:07:08.395Z,101998.72
2022-10-03T02:12:23.692Z,102004.88
2022-10-03T02:17:55.152Z,102017.09
2022-10-03T02:22:58.832Z,102006.66
2022-10-03T02:28:22.004Z,102014.47
2022-10-03T02:34:00.746Z,102018.88
2022-10-03T02:39:17.209Z,102033.69
2022-10-03T02:44:49.449Z,102035.44
2022-10-03T02:50:13.635Z,102036.31
2022-10-03T02:55:32.806Z,102037.19
2022-10-03T03:01:02.124Z,102046.75
2022-10-03T03:06:41.132Z,102047.66
2022-10-03T03:12:04.688Z,102050.25
2022-10-03T03:17:25.089Z,102052.88
2022-10-03T03:22:39.232Z,102053.72
2022-10-03T03:28:11.524Z,102052.00
2022-10-03T03:33:28.357Z,102066.78
2022-10-03T03:38:42.043Z,102065.03
2022-10-03T03:43:44.574Z,102069.34
2022-10-03T03:49:17.035Z,102062.41
2022-10-03T03:54:48.721Z,102059.81
2022-10-03T04:00:31.256Z,102060.69
2022-10-03T04:05:53.651Z,102057.22
2022-10-03T04:11:13.613Z,102070.25
2022-10-03T04:16:49.348Z,102075.44
2022-10-03T04:22:18.140Z,102072.84
2022-10-03T04:27:33.993Z,102080.69
2022-10-03T04:32:49.872Z,102075.47
2022-10-03T04:38:23.097Z,102084.97
2022-10-03T04:43:36.062Z,102096.28
2022-10-03T04:48:44.843Z,102088.47
2022-10-03T04:54:15.336Z,102087.56
2022-10-03T04:59:50.711Z,102089.34
2022-10-03T05:05:31.224Z,102084.13
2022-10-03T05:18:04.752Z,58582.53
2022-10-03T05:24:26.701Z,58582.53
2022-10-03T05:31:01.660Z,58582.53
2022-10-03T05:37:16.344Z,58582.53
2022-10-03T05:43:27.027Z,58582.53
2022-10-03T05:49:54.858Z,58582.53
2022-10-03T05:56:14.737Z,102084.13
2022-10-03T06:03:10.310Z,58582.53
2022-10-03T06:09:38.767Z,58582.53
2022-10-03T06:15:15.064Z,102084.13
2022-10-03T06:21:41.916Z,58582.53
2022-10-03T06:27:26.232Z,102084.13
2022-10-03T06:34:09.780Z,58582.53
2022-10-03T06:40:29.012Z,58582.53
2022-10-03T06:46:45.506Z,58582.53
2022-10-03T06:52:09.121Z,102084.13
2022-10-03T06:57:27.113Z,102084.13
2022-10-03T07:02:57.199Z,102084.13
2022-10-03T07:09:34.621Z,58582.53
2022-10-03T07:15:03.306Z,102084.13
2022-10-03T07:20:48.202Z,102084.13
2022-10-03T07:26:23.759Z,111510.16
2022-10-03T07:32:06.593Z,102084.13
2022-10-03T07:38:05.396Z,111510.16
2022-10-03T07:44:42.963Z,58582.53
2022-10-03T07:50:33.532Z,102084.13
2022-10-03T07:56:14.193Z,102084.13
2022-10-03T08:01:35.503Z,102084.13
2022-10-03T08:07:06.532Z,102084.13
2022-10-03T08:12:33.621Z,103388.03
2022-10-03T08:18:20.862Z,102084.13
2022-10-03T08:24:00.438Z,58582.53
2022-10-03T08:29:39.463Z,58582.53
2022-10-03T08:35:08.431Z,102218.03
2022-10-03T08:40:36.004Z,102235.31
2022-10-03T08:45:52.847Z,102238.53
2022-10-03T08:51:14.106Z,102250.41
2022-10-03T08:56:24.471Z,102236.56
2022-10-03T09:01:37.606Z,102249.47
2022-10-03T09:07:17.651Z,102252.78
2022-10-03T09:12:53.356Z,102260.38
2022-10-03T09:18:10.026Z,102243.69
2022-10-03T09:23:38.780Z,102249.13
2022-10-03T09:29:24.633Z,102253.16
2022-10-03T09:35:03.668Z,102252.25
2022-10-03T09:40:26.451Z,102246.91
2022-10-03T09:45:58.754Z,102249.94
2022-10-03T09:51:29.656Z,102247.56
2022-10-03T09:56:40.231Z,102247.84
2022-10-03T10:02:23.299Z,102262.63
2022-10-03T10:07:43.060Z,102259.97
2022-10-03T10:13:12.008Z,102261.72
2022-10-03T10:18:24.020Z,102258.84
2022-10-03T10:23:34.735Z,102247.91
2022-10-03T10:28:55.312Z,102242.69
2022-10-03T10:34:11.765Z,102244.22
2022-10-03T10:39:34.273Z,102252.34
2022-10-03T10:44:42.109Z,102258.94
2022-10-03T10:50:08.425Z,102252.63
2022-10-03T10:55:35.125Z,102247.13
2022-10-03T11:01:22.129Z,102226.78
2022-10-03T11:06:47.816Z,102245.09
2022-10-03T11:12:11.703Z,102249.59
2022-10-03T11:17:47.696Z,102245.09
2022-10-03T11:23:29.746Z,102235.50
2022-10-03T11:28:49.676Z,102257.47
2022-10-03T11:33:59.941Z,102260.31
2022-10-03T11:39:43.031Z,102246.56
2022-10-03T11:44:48.986Z,102243.06
2022-10-03T11:50:15.307Z,102245.09
2022-10-03T11:55:28.559Z,102249.13
2022-10-03T12:00:34.916Z,102245.00
2022-10-03T12:06:32.625Z,102239.16
2022-10-03T12:12:03.052Z,102250.38
2022-10-03T12:17:25.232Z,102249.69
2022-10-03T12:22:41.985Z,102255.06
2022-10-03T12:28:03.675Z,102255.66
2022-10-03T12:33:32.756Z,102247.78
2022-10-03T12:38:55.743Z,102251.25
2022-10-03T12:44:10.707Z,102244.91
2022-10-03T12:49:48.792Z,102251.84
2022-10-03T12:55:22.380Z,102260.88
2022-10-03T13:00:24.149Z,102269.91
2022-10-03T13:06:07.247Z,102263.94
2022-10-03T13:11:18.885Z,102261.09
2022-10-03T13:16:41.077Z,102267.53
2022-10-03T13:21:46.664Z,102272.31
2022-10-03T13:27:00.245Z,102266.75
2022-10-03T13:32:39.765Z,102271.31
2022-10-03T13:38:09.135Z,102249.19
2022-10-03T13:43:15.296Z,102259.00
2022-10-03T13:48:23.816Z,102252.09
2022-10-03T13:53:31.432Z,102245.94
2022-10-03T13:58:46.750Z,102251.63
2022-10-03T14:04:06.757Z,102257.78
2022-10-03T14:09:15.883Z,102253.50
2022-10-03T14:14:45.164Z,102263.56
2022-10-03T14:20:11.314Z,102255.97
2022-10-03T14:25:41.006Z,102249.34
2022-10-03T14:31:17.575Z,102244.69
2022-10-03T14:36:47.166Z,102247.47
2022-10-03T14:41:52.073Z,102248.72
2022-10-03T14:47:02.949Z,102240.81
2022-10-03T14:52:18.785Z,102242.22
2022-10-03T14:57:52.960Z,102250.47
2022-10-03T15:02:57.639Z,102237.56
2022-10-03T15:07:59.334Z,102242.81
2022-10-03T15:13:09.772Z,102243.25
2022-10-03T15:18:21.517Z,102232.25
2022-10-03T15:23:28.093Z,102226.81
2022-10-03T15:28:44.774Z,102214.41
2022-10-03T15:33:53.401Z,102215.56
2022-10-03T15:39:00.543Z,102223.69
2022-10-03T15:44:19.480Z,102219.25
2022-10-03T15:49:27.555Z,102219.75
2022-10-03T15:54:32.447Z,102217.66
2022-10-03T15:59:40.516Z,102216.56
2022-10-03T16:04:43.709Z,102223.41
2022-10-03T16:10:18.419Z,102231.91
2022-10-03T16:15:43.574Z,102227.78
2022-10-03T16:21:01.582Z,102230.09
2022-10-03T16:26:21.369Z,102221.44
2022-10-03T16:31:29.654Z,102222.28
2022-10-03T16:36:40.808Z,102222.41
2022-10-03T16:41:44.007Z,102233.22
2022-10-03T16:46:47.038Z,102219.78
2022-10-03T16:52:08.779Z,102223.47
2022-10-03T16:57:19.715Z,102233.41
2022-10-03T17:02:26.460Z,102228.44
2022-10-03T17:07:43.261Z,102225.13
2022-10-03T17:12:52.289Z,102234.34
2022-10-03T17:18:22.083Z,102235.06
2022-10-03T17:23:40.892Z,102241.44
2022-10-03T17:28:50.747Z,102238.13
2022-10-03T17:34:01.619Z,102239.31
2022-10-03T17:39:05.561Z,102229.06
2022-10-03T17:44:18.993Z,102237.16
2022-10-03T17:50:03.064Z,102237.50
2022-10-03T17:55:09.997Z,102234.91
2022-10-03T18:00:22.520Z,102239.47
2022-10-03T18:05:43.434Z,102250.28
2022-10-03T18:10:52.226Z,102243.44
2022-10-03T18:16:04.291Z,102241.69
2022-10-03T18:21:18.565Z,102244.41
2022-10-03T18:26:28.490Z,102247.19
2022-10-03T18:31:35.021Z,102238.53
2022-10-03T18:36:49.845Z,58582.53
2022-10-03T18:42:29.778Z,36788.50
2022-10-03T18:48:38.298Z,58582.53
2022-10-03T18:55:04.118Z,58582.53
2022-10-03T19:01:12.201Z,58582.53
2022-10-03T19:07:19.683Z,58582.53
2022-10-03T19:13:31.183Z,58582.53
2022-10-03T19:19:44.843Z,58582.53
2022-10-03T19:25:50.212Z,58582.53
2022-10-03T19:32:14.800Z,58582.53
2022-10-03T19:38:40.469Z,58582.53
2022-10-03T19:44:42.004Z,58582.53
2022-10-03T19:50:53.367Z,58582.53
2022-10-03T19:56:54.792Z,58582.53
2022-10-03T20:02:56.472Z,58582.53
2022-10-03T20:09:06.627Z,58582.53
2022-10-03T20:15:31.827Z,58582.53
2022-10-03T20:21:33.508Z,58582.53
2022-10-03T20:27:43.596Z,58582.53
2022-10-03T20:33:05.807Z,58582.53
2022-10-03T20:39:17.671Z,58582.53
2022-10-03T20:45:31.436Z,58582.53
2022-10-03T20:51:38.574Z,58582.53
2022-10-03T20:58:25.869Z,58582.53
2022-10-03T21:04:04.948Z,58582.53
2022-10-03T21:09:07.156Z,58582.53
2022-10-03T21:14:24.605Z,58582.53
2022-10-03T21:19:45.741Z,58582.53
2022-10-03T21:25:03.739Z,58582.53
2022-10-03T21:30:19.027Z,58582.53
2022-10-03T21:35:26.576Z,58582.53
2022-10-03T21:40:27.928Z,58582.53
2022-10-03T21:45:46.286Z,58582.53
2022-10-03T21:50:55.300Z,58582.53
2022-10-03T21:56:32.289Z,102213.81
2022-10-03T22:01:36.465Z,102210.25
2022-10-03T22:06:47.115Z,102202.38
2022-10-03T22:11:55.549Z,102204.00
2022-10-03T22:17:16.935Z,102201.25
2022-10-03T22:22:40.161Z,102200.38
2022-10-03T22:28:10.831Z,102197.75
2022-10-03T22:33:30.754Z,102191.66
2022-10-03T22:38:36.195Z,102184.81
2022-10-03T22:43:38.921Z,102184.91
2022-10-03T22:48:49.289Z,102172.81
2022-10-03T22:53:58.076Z,102172.91
2022-10-03T22:59:02.245Z,102173.00
2022-10-03T23:04:08.000Z,102174.75
2022-10-03T23:09:23.760Z,102170.44
2022-10-03T23:14:30.682Z,102172.22
2022-10-03T23:19:56.789Z,102160.91
2022-10-03T23:25:06.529Z,102150.47
2022-10-03T23:30:17.260Z,102155.72
2022-10-03T23:35:30.847Z,102154.00
2022-10-03T23:40:50.565Z,102150.53
2022-10-03T23:45:55.448Z,102142.72
2022-10-03T23:51:04.669Z,102148.03
2022-10-03T23:56:23.790Z,102142.81
